Terminal Aerodrome Forecast
Issued by NWS

Home | Current Version | Previous Version | Graphics & Text | Print | Product List | Glossary On
Versions: 1 2 3 4 5 6 7 8 9 10 11 12 13 14 15 16 17 18
000
FTUS43 KABR 172000 AAA
TAFATY
TAF AMD
KATY 172039Z 1721/1818 VRB03KT P6SM SKC
     FM180000 12005KT P6SM VCSH BKN050
     FM180300 11005KT P6SM SCT250
     FM181500 14017G23KT P6SM VCSH OVC050=

USA.gov is the U.S. government's official web portal to all federal, state and local government web resources and services.